Perry, New York
Current Conditions -  °F | °C
As of 5:54 PM on Wednesday 22 Oct 2014 (Local Time) from KDSV Reporting Station
Overcast Overcast  
Wind Chill: 42°   Ceiling: 1700
Heat Index: 46°   Visibility: 10mi
Dew Point: 42°   Wind: 8mph
Humidity: 86%   Direction: 320°NW
Pressure: 30.19"   Gusts: NA
Location:  42.72°N, 78.01°W
Report Text: KDSV 222154Z AUTO 32007KT 10SM OVC017 08/06 A3019 RMK AO2 SLP234 T00780056
Loading
Personal Weather Stations






























Interactive Weather Map
Tropical Storm Tracking
New forecast layout! Learn more

10-Day Weather Forecast

Advertisements
Track Severe Weather on mobile